createdAt,value
2022-09-26T00:01:21.673Z,100108.00
2022-09-26T00:03:51.397Z,100112.00
2022-09-26T00:06:20.257Z,100105.00
2022-09-26T00:08:50.099Z,100104.00
2022-09-26T00:11:19.995Z,100105.00
2022-09-26T00:13:48.481Z,100093.00
2022-09-26T00:16:17.722Z,100087.00
2022-09-26T00:18:49.439Z,100088.00
2022-09-26T00:21:18.053Z,100069.00
2022-09-26T00:23:46.094Z,100077.00
2022-09-26T00:26:15.911Z,100067.00
2022-09-26T00:28:44.191Z,100054.00
2022-09-26T00:31:14.402Z,100059.00
2022-09-26T00:33:42.358Z,100061.00
2022-09-26T00:36:11.723Z,100052.00
2022-09-26T00:38:39.703Z,100048.00
2022-09-26T00:41:08.380Z,100047.00
2022-09-26T00:43:38.496Z,100045.00
2022-09-26T00:46:15.983Z,100028.00
2022-09-26T00:48:45.801Z,100036.00
2022-09-26T00:51:15.232Z,100019.00
2022-09-26T00:53:46.175Z,100024.00
2022-09-26T00:56:24.537Z,100028.00
2022-09-26T00:58:56.983Z,100022.00
2022-09-26T01:01:25.021Z,100008.00
2022-09-26T01:03:53.319Z,100018.00
2022-09-26T01:06:22.849Z,100015.00
2022-09-26T01:08:54.486Z,100002.00
2022-09-26T01:11:22.732Z,100006.00
2022-09-26T01:13:52.046Z,100006.00
2022-09-26T01:16:19.809Z,100004.00
2022-09-26T01:18:48.808Z,100002.00
2022-09-26T01:21:44.331Z,99989.00
2022-09-26T01:24:40.960Z,99999.00
2022-09-26T01:27:35.680Z,99991.00
2022-09-26T01:30:09.781Z,99988.00
2022-09-26T01:33:18.991Z,99983.00
2022-09-26T01:36:13.816Z,99972.00
2022-09-26T01:38:53.976Z,99964.00
2022-09-26T01:41:34.045Z,99977.00
2022-09-26T01:44:10.174Z,99971.00
2022-09-26T01:46:47.055Z,99968.00
2022-09-26T01:49:20.083Z,99969.00
2022-09-26T01:51:53.404Z,99968.00
2022-09-26T01:54:26.898Z,99961.00
2022-09-26T01:56:58.696Z,99960.00
2022-09-26T01:59:31.841Z,99959.00
2022-09-26T02:02:07.310Z,99951.00
2022-09-26T02:04:38.808Z,99954.00
2022-09-26T02:07:12.731Z,99963.00
2022-09-26T02:09:45.258Z,99947.00
2022-09-26T02:12:19.685Z,99949.00
2022-09-26T02:14:49.157Z,99937.00
2022-09-26T02:17:22.699Z,99922.00
2022-09-26T02:19:57.064Z,99929.00
2022-09-26T02:22:27.925Z,99934.00
2022-09-26T02:24:55.964Z,99931.00
2022-09-26T02:27:23.762Z,99921.00
2022-09-26T02:29:51.521Z,99914.00
2022-09-26T02:32:24.970Z,99909.00
2022-09-26T02:34:52.710Z,99915.00
2022-09-26T02:37:22.576Z,99901.00
2022-09-26T02:39:51.814Z,99904.00
2022-09-26T02:42:22.198Z,99900.00
2022-09-26T02:45:01.703Z,99893.00
2022-09-26T02:47:52.557Z,99893.00
2022-09-26T02:50:37.459Z,99886.00
2022-09-26T02:53:14.482Z,99882.00
2022-09-26T02:55:51.722Z,99877.00
2022-09-26T02:58:26.468Z,99867.00
2022-09-26T03:01:01.789Z,99879.00
2022-09-26T03:03:36.674Z,99873.00
2022-09-26T03:06:08.368Z,99863.00
2022-09-26T03:08:39.548Z,99864.00
2022-09-26T03:11:10.836Z,99853.00
2022-09-26T03:13:40.967Z,99853.00
2022-09-26T03:16:11.094Z,99845.00
2022-09-26T03:18:44.981Z,99852.00
2022-09-26T03:21:14.870Z,99843.00
2022-09-26T03:23:43.141Z,99843.00
2022-09-26T03:26:13.816Z,99837.00
2022-09-26T03:28:42.437Z,99829.00
2022-09-26T03:31:10.201Z,99830.00
2022-09-26T03:33:39.082Z,99830.00
2022-09-26T03:36:09.430Z,99824.00
2022-09-26T03:38:37.195Z,99822.00
2022-09-26T03:41:04.954Z,99825.00
2022-09-26T03:43:32.727Z,99820.00
2022-09-26T03:46:04.236Z,99829.00
2022-09-26T03:48:32.361Z,99820.00
2022-09-26T03:51:03.575Z,99804.00
2022-09-26T03:53:34.088Z,99802.00
2022-09-26T03:56:06.940Z,99792.00
2022-09-26T03:58:35.060Z,99793.00
2022-09-26T04:01:08.084Z,99791.00
2022-09-26T04:03:37.710Z,99783.00
2022-09-26T04:06:06.163Z,99780.00
2022-09-26T04:08:35.569Z,99786.00
2022-09-26T04:11:04.208Z,99772.00
2022-09-26T04:16:21.199Z,99768.00
2022-09-26T04:18:49.387Z,99773.00
2022-09-26T04:21:17.774Z,99763.00
2022-09-26T04:23:46.806Z,99751.00
2022-09-26T04:26:22.957Z,99757.00
2022-09-26T04:28:52.161Z,99757.00
2022-09-26T04:31:21.461Z,99757.00
2022-09-26T04:33:49.502Z,99747.00
2022-09-26T04:36:18.201Z,99747.00
2022-09-26T04:38:47.738Z,99746.00
2022-09-26T04:41:17.337Z,99738.00
2022-09-26T04:43:45.611Z,99740.00
2022-09-26T04:46:20.820Z,99731.00
2022-09-26T04:48:50.609Z,99725.00
2022-09-26T04:51:20.063Z,99729.00
2022-09-26T04:53:50.426Z,99731.00
2022-09-26T04:56:20.648Z,99725.00
2022-09-26T04:58:48.800Z,99709.00
2022-09-26T05:01:18.249Z,99716.00
2022-09-26T05:03:46.205Z,99712.00
2022-09-26T05:06:14.832Z,99707.00
2022-09-26T05:08:44.602Z,99714.00
2022-09-26T05:11:15.564Z,99706.00
2022-09-26T05:13:43.755Z,99696.00
2022-09-26T05:16:14.489Z,99694.00
2022-09-26T05:18:42.457Z,99685.00
2022-09-26T05:21:10.430Z,99675.00
2022-09-26T05:23:55.868Z,99681.00
2022-09-26T05:26:27.743Z,99677.00
2022-09-26T05:28:56.846Z,99675.00
2022-09-26T05:31:26.223Z,99672.00
2022-09-26T05:33:56.423Z,99675.00
2022-09-26T05:36:24.846Z,99672.00
2022-09-26T05:38:52.727Z,99684.00
2022-09-26T05:41:20.072Z,99676.00
2022-09-26T05:43:49.435Z,99697.00
2022-09-26T05:46:17.400Z,99682.00
2022-09-26T05:48:45.246Z,99673.00
2022-09-26T05:51:17.066Z,99668.00
2022-09-26T05:53:46.108Z,99671.00
2022-09-26T05:56:18.824Z,99683.00
2022-09-26T05:58:47.313Z,99671.00
2022-09-26T06:01:18.160Z,99666.00
2022-09-26T06:03:47.726Z,99668.00
2022-09-26T06:06:17.245Z,99666.00
2022-09-26T06:08:45.800Z,99666.00
2022-09-26T06:11:16.347Z,99675.00
2022-09-26T06:13:46.472Z,99667.00
2022-09-26T06:16:19.564Z,99654.00
2022-09-26T06:18:49.135Z,99659.00
2022-09-26T06:21:18.618Z,99652.00
2022-09-26T06:23:46.745Z,99645.00
2022-09-26T06:26:17.205Z,99640.00
2022-09-26T06:28:45.066Z,99641.00
2022-09-26T06:31:14.572Z,99637.00
2022-09-26T06:33:43.781Z,99631.00
2022-09-26T06:36:12.642Z,99626.00
2022-09-26T06:38:40.336Z,99632.00
2022-09-26T06:41:08.293Z,99629.00
2022-09-26T06:43:36.118Z,99625.00
2022-09-26T06:46:03.841Z,99619.00
2022-09-26T06:48:31.553Z,99609.00
2022-09-26T06:51:00.755Z,99610.00
2022-09-26T06:53:28.771Z,99607.00
2022-09-26T06:55:56.471Z,99610.00
2022-09-26T06:58:24.264Z,99601.00
2022-09-26T07:00:52.110Z,99599.00
2022-09-26T07:03:19.900Z,99608.00
2022-09-26T07:05:47.758Z,99599.00
2022-09-26T07:08:17.153Z,99600.00
2022-09-26T07:10:44.911Z,99602.00
2022-09-26T07:13:12.724Z,99601.00
2022-09-26T07:15:40.444Z,99598.00
2022-09-26T07:18:08.231Z,99594.00
2022-09-26T07:20:39.972Z,99586.00
2022-09-26T07:23:10.357Z,99593.00
2022-09-26T07:25:39.844Z,99598.00
2022-09-26T07:28:08.623Z,99596.00
2022-09-26T07:30:36.448Z,99594.00
2022-09-26T07:33:05.959Z,99590.00
2022-09-26T07:35:35.293Z,99583.00
2022-09-26T07:38:05.054Z,99585.00
2022-09-26T07:40:33.005Z,99581.00
2022-09-26T07:43:19.692Z,99569.00
2022-09-26T07:46:06.078Z,99583.00
2022-09-26T07:48:51.305Z,99569.00
2022-09-26T07:51:19.785Z,99579.00
2022-09-26T07:53:47.509Z,99566.00
2022-09-26T07:56:16.858Z,99570.00
2022-09-26T07:58:46.389Z,99571.00
2022-09-26T08:01:16.492Z,99563.00
2022-09-26T08:03:46.054Z,99563.00
2022-09-26T08:06:14.658Z,99555.00
2022-09-26T08:08:42.370Z,99555.00
2022-09-26T08:11:16.269Z,99544.00
2022-09-26T08:13:46.097Z,99550.00
2022-09-26T08:16:19.798Z,99552.00
2022-09-26T08:18:47.961Z,99548.00
2022-09-26T08:21:15.803Z,99552.00
2022-09-26T08:23:43.574Z,99546.00
2022-09-26T08:26:11.310Z,99549.00
2022-09-26T08:28:39.662Z,99540.00
2022-09-26T08:31:08.857Z,99540.00
2022-09-26T08:33:38.816Z,99530.00
2022-09-26T08:36:07.688Z,99544.00
2022-09-26T08:38:36.590Z,99534.00
2022-09-26T08:41:16.451Z,99535.00
2022-09-26T08:43:56.207Z,99533.00
2022-09-26T08:46:43.124Z,99541.00
2022-09-26T08:49:32.069Z,99530.00
2022-09-26T08:52:02.370Z,99538.00
2022-09-26T08:54:37.328Z,99524.00
2022-09-26T08:57:15.067Z,99526.00
2022-09-26T08:59:45.757Z,99523.00
2022-09-26T09:02:27.285Z,99519.00
2022-09-26T09:05:00.042Z,99515.00
2022-09-26T09:07:28.373Z,99508.00
2022-09-26T09:10:01.387Z,99505.00
2022-09-26T09:12:40.817Z,99508.00
2022-09-26T09:15:26.152Z,99502.00
2022-09-26T09:18:13.367Z,99496.00
2022-09-26T09:20:51.821Z,99497.00
2022-09-26T09:23:31.242Z,99492.00
2022-09-26T09:29:19.773Z,99495.00
2022-09-26T09:31:48.777Z,99486.00
2022-09-26T09:34:28.947Z,99481.00
2022-09-26T09:37:00.492Z,99484.00
2022-09-26T09:39:32.254Z,99472.00
2022-09-26T09:42:06.250Z,99471.00
2022-09-26T09:44:46.462Z,99478.00
2022-09-26T09:47:16.823Z,99468.00
2022-09-26T09:49:52.465Z,99468.00
2022-09-26T09:52:32.892Z,99479.00
2022-09-26T09:58:20.792Z,99465.00
2022-09-26T10:00:54.781Z,99463.00
2022-09-26T10:03:27.715Z,99454.00
2022-09-26T10:06:01.008Z,99457.00
2022-09-26T10:08:31.495Z,99456.00
2022-09-26T10:11:11.111Z,99466.00
2022-09-26T10:13:42.869Z,99446.00
2022-09-26T10:16:15.371Z,99452.00
2022-09-26T10:19:03.428Z,99444.00
2022-09-26T10:21:39.430Z,99439.00
2022-09-26T10:24:22.792Z,99430.00
2022-09-26T10:26:51.278Z,99439.00
2022-09-26T10:29:25.889Z,99425.00
2022-09-26T10:31:57.499Z,99434.00
2022-09-26T10:34:28.329Z,99430.00
2022-09-26T10:36:58.042Z,99436.00
2022-09-26T10:39:46.212Z,99436.00
2022-09-26T10:42:17.765Z,99434.00
2022-09-26T10:44:47.965Z,99424.00
2022-09-26T10:47:19.350Z,99430.00
2022-09-26T10:49:51.125Z,99428.00
2022-09-26T10:52:25.560Z,99422.00
2022-09-26T10:54:58.968Z,99432.00
2022-09-26T10:57:34.500Z,99424.00
2022-09-26T11:00:08.631Z,99424.00
2022-09-26T11:02:37.665Z,99417.00
2022-09-26T11:05:25.122Z,99415.00
2022-09-26T11:07:54.342Z,99413.00
2022-09-26T11:10:26.261Z,99416.00
2022-09-26T11:12:59.838Z,99404.00
2022-09-26T11:15:28.706Z,99402.00
2022-09-26T11:17:57.339Z,99395.00
2022-09-26T11:20:36.384Z,99386.00
2022-09-26T11:23:17.535Z,99392.00
2022-09-26T11:25:57.840Z,99380.00
2022-09-26T11:37:30.518Z,99371.00
2022-09-26T11:40:27.150Z,99364.00
2022-09-26T11:43:11.777Z,99364.00
2022-09-26T11:45:57.905Z,99355.00
2022-09-26T11:49:01.883Z,99365.00
2022-09-26T11:51:44.099Z,99361.00
2022-09-26T11:54:25.117Z,99356.00
2022-09-26T11:57:08.793Z,99355.00
2022-09-26T11:59:59.118Z,99355.00
2022-09-26T12:02:42.304Z,99342.00
2022-09-26T12:05:27.369Z,99357.00
2022-09-26T12:08:07.094Z,99343.00
2022-09-26T12:10:42.726Z,99346.00
2022-09-26T12:13:24.888Z,99343.00
2022-09-26T12:16:01.022Z,99341.00
2022-09-26T12:18:36.907Z,99339.00
2022-09-26T12:21:22.767Z,99332.00
2022-09-26T12:23:54.379Z,99332.00
2022-09-26T12:26:30.233Z,99333.00
2022-09-26T12:29:28.636Z,99323.00
2022-09-26T12:32:16.123Z,99329.00
2022-09-26T12:35:14.686Z,99328.00
2022-09-26T12:38:07.027Z,99319.00
2022-09-26T12:40:39.904Z,99317.00
2022-09-26T12:43:26.066Z,99315.00
2022-09-26T12:46:13.281Z,99307.00
2022-09-26T12:48:53.748Z,99299.00
2022-09-26T12:51:29.175Z,99293.00
2022-09-26T12:54:09.943Z,99294.00
2022-09-26T12:56:48.199Z,99289.00
2022-09-26T12:59:27.172Z,99289.00
2022-09-26T13:02:33.608Z,99278.00
2022-09-26T13:05:30.439Z,99284.00
2022-09-26T13:08:08.322Z,99289.00
2022-09-26T13:10:42.754Z,99278.00
2022-09-26T13:13:47.776Z,99273.00
2022-09-26T13:16:31.710Z,99267.00
2022-09-26T13:19:05.326Z,99262.00
2022-09-26T13:21:45.393Z,99264.00
2022-09-26T13:24:18.848Z,99252.00
2022-09-26T13:26:52.789Z,99254.00
2022-09-26T13:29:25.530Z,99247.00
2022-09-26T13:32:01.947Z,99239.00
2022-09-26T13:34:37.478Z,99237.00
2022-09-26T13:37:10.122Z,99239.00
2022-09-26T13:39:46.501Z,99238.00
2022-09-26T13:42:19.125Z,99230.00
2022-09-26T13:44:59.335Z,99233.00
2022-09-26T13:47:36.215Z,99224.00
2022-09-26T13:50:23.211Z,99220.00
2022-09-26T13:53:05.911Z,99221.00
2022-09-26T13:55:34.431Z,99219.00
2022-09-26T13:58:07.036Z,99212.00
2022-09-26T14:00:54.476Z,99216.00
2022-09-26T14:03:42.297Z,99221.00
2022-09-26T14:06:32.103Z,99226.00
2022-09-26T14:09:27.165Z,99209.00
2022-09-26T14:12:33.614Z,99198.00
2022-09-26T14:15:29.147Z,99212.00
2022-09-26T14:18:39.379Z,99193.00
2022-09-26T14:21:16.670Z,99199.00
2022-09-26T14:23:47.542Z,99200.00
2022-09-26T14:26:21.026Z,99193.00
2022-09-26T14:28:54.387Z,99183.00
2022-09-26T14:31:38.450Z,99180.00
2022-09-26T14:34:16.208Z,99180.00
2022-09-26T14:36:45.177Z,99178.00
2022-09-26T14:39:28.416Z,99172.00
2022-09-26T14:41:57.818Z,99173.00
2022-09-26T14:44:36.320Z,99171.00
2022-09-26T14:47:13.971Z,99164.00
2022-09-26T14:49:42.057Z,99157.00
2022-09-26T14:52:19.654Z,99161.00
2022-09-26T14:54:49.494Z,99154.00
2022-09-26T14:57:24.572Z,99145.00
2022-09-26T14:59:52.618Z,99154.00
2022-09-26T15:02:28.620Z,99142.00
2022-09-26T15:05:04.101Z,99129.00
2022-09-26T15:07:35.987Z,99145.00
2022-09-26T15:10:18.839Z,99138.00
2022-09-26T15:12:51.105Z,99132.00
2022-09-26T15:15:31.794Z,99125.00
2022-09-26T15:18:08.194Z,99118.00
2022-09-26T15:20:43.453Z,99113.00
2022-09-26T15:23:26.320Z,99105.00
2022-09-26T15:25:57.343Z,99112.00
2022-09-26T15:28:25.434Z,99107.00
2022-09-26T15:31:21.384Z,99098.00
2022-09-26T15:33:52.186Z,99096.00
2022-09-26T15:36:21.057Z,99095.00
2022-09-26T15:38:49.223Z,99086.00
2022-09-26T15:41:40.112Z,99076.00
2022-09-26T15:44:08.503Z,99079.00
2022-09-26T15:46:36.631Z,99074.00
2022-09-26T15:49:15.179Z,99073.00
2022-09-26T15:51:45.435Z,99064.00
2022-09-26T15:54:21.688Z,99068.00
2022-09-26T15:56:52.649Z,99069.00
2022-09-26T15:59:26.325Z,99057.00
2022-09-26T16:01:54.843Z,99060.00
2022-09-26T16:04:24.247Z,99051.00
2022-09-26T16:06:56.131Z,99051.00
2022-09-26T16:09:30.040Z,99052.00
2022-09-26T16:12:02.879Z,99035.00
2022-09-26T16:14:40.503Z,99038.00
2022-09-26T16:17:18.619Z,99042.00
2022-09-26T16:19:47.880Z,99042.00
2022-09-26T16:22:40.562Z,99019.00
2022-09-26T16:25:31.342Z,99032.00
2022-09-26T16:28:23.210Z,99035.00
2022-09-26T16:31:10.956Z,99027.00
2022-09-26T16:33:40.386Z,99020.00
2022-09-26T16:36:17.020Z,99024.00
2022-09-26T16:38:52.010Z,99014.00
2022-09-26T16:41:49.002Z,99011.00
2022-09-26T16:44:27.645Z,99012.00
2022-09-26T16:46:58.812Z,99009.00
2022-09-26T16:49:46.024Z,99018.00
2022-09-26T16:52:30.570Z,99014.00
2022-09-26T16:54:59.823Z,99021.00
2022-09-26T16:57:30.079Z,99025.00
2022-09-26T17:00:16.652Z,99013.00
2022-09-26T17:02:44.514Z,99008.00
2022-09-26T17:05:19.014Z,99007.00
2022-09-26T17:07:48.258Z,99005.00
2022-09-26T17:10:17.032Z,99001.00
2022-09-26T17:12:48.956Z,99002.00
2022-09-26T17:15:20.720Z,98995.00
2022-09-26T17:17:53.502Z,98994.00
2022-09-26T17:20:22.175Z,98998.00
2022-09-26T17:22:50.288Z,98989.00
2022-09-26T17:25:20.972Z,98990.00
2022-09-26T17:27:54.756Z,98986.00
2022-09-26T17:30:24.115Z,98980.00
2022-09-26T17:32:54.285Z,98987.00
2022-09-26T17:35:26.843Z,98986.00
2022-09-26T17:37:55.235Z,98975.00
2022-09-26T17:40:25.316Z,98980.00
2022-09-26T17:42:55.226Z,98962.00
2022-09-26T17:45:28.874Z,98963.00
2022-09-26T17:47:58.988Z,98967.00
2022-09-26T17:50:29.423Z,98963.00
2022-09-26T17:52:58.910Z,98961.00
2022-09-26T17:55:27.117Z,98961.00
2022-09-26T17:57:55.725Z,98958.00
2022-09-26T18:00:25.829Z,98953.00
2022-09-26T18:02:59.651Z,98956.00
2022-09-26T18:05:32.831Z,98949.00
2022-09-26T18:08:05.248Z,98946.00
2022-09-26T18:10:35.480Z,98936.00
2022-09-26T18:13:09.399Z,98943.00
2022-09-26T18:15:42.850Z,98937.00
2022-09-26T18:18:13.980Z,98937.00
2022-09-26T18:20:42.267Z,98944.00
2022-09-26T18:23:16.276Z,98948.00
2022-09-26T18:25:47.098Z,98935.00
2022-09-26T18:28:17.377Z,98937.00
2022-09-26T18:30:48.709Z,98928.00
2022-09-26T18:33:19.201Z,98925.00
2022-09-26T18:35:48.845Z,98932.00
2022-09-26T18:38:16.618Z,98922.00
2022-09-26T18:40:50.359Z,98919.00
2022-09-26T18:43:20.385Z,98921.00
2022-09-26T18:45:50.823Z,98922.00
2022-09-26T18:48:24.793Z,98922.00
2022-09-26T18:50:53.370Z,98912.00
2022-09-26T18:53:23.878Z,98911.00
2022-09-26T18:56:09.166Z,98910.00
2022-09-26T18:58:37.132Z,98908.00
2022-09-26T19:01:09.099Z,98906.00
2022-09-26T19:03:39.018Z,98892.00
2022-09-26T19:06:11.577Z,98903.00
2022-09-26T19:08:41.157Z,98912.00
2022-09-26T19:11:14.719Z,98902.00
2022-09-26T19:13:43.115Z,98906.00
2022-09-26T19:16:12.761Z,98905.00
2022-09-26T19:18:41.703Z,98897.00
2022-09-26T19:21:16.805Z,98906.00
2022-09-26T19:23:46.949Z,98898.00
2022-09-26T19:26:24.808Z,98901.00
2022-09-26T19:28:52.991Z,98912.00
2022-09-26T19:31:22.272Z,98900.00
2022-09-26T19:33:51.064Z,98903.00
2022-09-26T19:36:20.216Z,98901.00
2022-09-26T19:38:48.042Z,98893.00
2022-09-26T19:41:15.919Z,98881.00
2022-09-26T19:43:43.737Z,98878.00
2022-09-26T19:46:16.523Z,98875.00
2022-09-26T19:48:45.775Z,98877.00
2022-09-26T19:51:16.812Z,98877.00
2022-09-26T19:53:44.666Z,98874.00
2022-09-26T19:56:12.676Z,98878.00
2022-09-26T19:58:40.594Z,98879.00
2022-09-26T20:01:16.090Z,98874.00
2022-09-26T20:03:45.443Z,98868.00
2022-09-26T20:06:15.964Z,98869.00
2022-09-26T20:08:43.960Z,98852.00
2022-09-26T20:11:12.766Z,98855.00
2022-09-26T20:13:58.653Z,98837.00
2022-09-26T20:16:26.697Z,98849.00
2022-09-26T20:18:56.676Z,98836.00
2022-09-26T20:21:27.162Z,98827.00
2022-09-26T20:23:55.649Z,98833.00
2022-09-26T20:26:23.585Z,98831.00
2022-09-26T20:28:51.403Z,98826.00
2022-09-26T20:31:22.680Z,98822.00
2022-09-26T20:33:51.165Z,98813.00
2022-09-26T20:36:25.109Z,98816.00
2022-09-26T20:38:55.728Z,98811.00
2022-09-26T20:41:27.603Z,98815.00
2022-09-26T20:44:01.703Z,98795.00
2022-09-26T20:46:33.132Z,98803.00
2022-09-26T20:49:02.400Z,98788.00
2022-09-26T20:51:35.089Z,98788.00
2022-09-26T20:54:03.683Z,98794.00
2022-09-26T20:56:31.557Z,98797.00
2022-09-26T20:58:59.337Z,98787.00
2022-09-26T21:01:28.420Z,98776.00
2022-09-26T21:03:56.894Z,98774.00
2022-09-26T21:06:27.743Z,98779.00
2022-09-26T21:08:57.367Z,98773.00
2022-09-26T21:11:25.268Z,98761.00
2022-09-26T21:13:53.026Z,98759.00
2022-09-26T21:16:22.420Z,98758.00
2022-09-26T21:18:52.788Z,98765.00
2022-09-26T21:21:24.375Z,98753.00
2022-09-26T21:23:52.676Z,98742.00
2022-09-26T21:26:23.584Z,98758.00
2022-09-26T21:28:52.612Z,98740.00
2022-09-26T21:31:23.831Z,98744.00
2022-09-26T21:33:52.168Z,98729.00
2022-09-26T21:36:21.703Z,98731.00
2022-09-26T21:38:53.541Z,98728.00
2022-09-26T21:41:23.258Z,98739.00
2022-09-26T21:43:55.252Z,98727.00
2022-09-26T21:46:24.376Z,98722.00
2022-09-26T21:48:52.640Z,98718.00
2022-09-26T21:51:21.545Z,98720.00
2022-09-26T21:53:53.486Z,98718.00
2022-09-26T21:56:28.680Z,98716.00
2022-09-26T21:58:57.511Z,98725.00
2022-09-26T22:01:25.394Z,98701.00
2022-09-26T22:03:53.349Z,98693.00
2022-09-26T22:06:21.869Z,98701.00
2022-09-26T22:08:50.277Z,98702.00
2022-09-26T22:11:18.269Z,98709.00
2022-09-26T22:13:47.454Z,98691.00
2022-09-26T22:16:15.311Z,98684.00
2022-09-26T22:18:43.112Z,98684.00
2022-09-26T22:21:12.609Z,98694.00
2022-09-26T22:23:40.426Z,98682.00
2022-09-26T22:26:08.639Z,98689.00
2022-09-26T22:28:36.932Z,98679.00
2022-09-26T22:31:06.488Z,98676.00
2022-09-26T22:33:34.766Z,98669.00
2022-09-26T22:36:03.227Z,98677.00
2022-09-26T22:38:31.258Z,98668.00
2022-09-26T22:41:00.746Z,98657.00
2022-09-26T22:43:28.921Z,98663.00
2022-09-26T22:46:02.323Z,98666.00
2022-09-26T22:48:33.343Z,98654.00
2022-09-26T22:51:01.406Z,98647.00
2022-09-26T22:53:31.416Z,98652.00
2022-09-26T22:56:04.986Z,98650.00
2022-09-26T22:58:36.524Z,98651.00
2022-09-26T23:01:05.201Z,98639.00
2022-09-26T23:03:34.480Z,98639.00
2022-09-26T23:06:02.309Z,98631.00
2022-09-26T23:08:30.107Z,98607.00
2022-09-26T23:10:58.138Z,98624.00
2022-09-26T23:13:27.180Z,98630.00
2022-09-26T23:15:54.973Z,98622.00
2022-09-26T23:18:23.234Z,98618.00
2022-09-26T23:20:52.706Z,98616.00
2022-09-26T23:23:20.645Z,98596.00
2022-09-26T23:25:50.308Z,98610.00
2022-09-26T23:28:18.519Z,98606.00
2022-09-26T23:30:46.898Z,98598.00
2022-09-26T23:33:15.086Z,98598.00
2022-09-26T23:35:43.155Z,98597.00
2022-09-26T23:38:12.289Z,98592.00
2022-09-26T23:40:40.084Z,98588.00
2022-09-26T23:43:08.143Z,98590.00
2022-09-26T23:45:36.072Z,98583.00
2022-09-26T23:48:04.112Z,98585.00
2022-09-26T23:50:31.865Z,98576.00
2022-09-26T23:53:02.247Z,98582.00
2022-09-26T23:55:35.579Z,98568.00
2022-09-26T23:58:03.388Z,98572.00
